createdAt,value
2023-02-08T00:01:24.474Z,6.40
2023-02-08T00:03:54.022Z,6.80
2023-02-08T00:06:22.135Z,5.67
2023-02-08T00:08:50.024Z,5.90
2023-02-08T00:11:17.890Z,5.60
2023-02-08T00:13:45.810Z,6.27
2023-02-08T00:16:15.060Z,6.63
2023-02-08T00:18:43.152Z,5.87
2023-02-08T00:21:14.861Z,5.33
2023-02-08T00:23:43.273Z,6.10
2023-02-08T00:26:11.979Z,5.93
2023-02-08T00:28:39.898Z,6.53
2023-02-08T00:31:08.238Z,6.03
2023-02-08T00:33:36.125Z,5.83
2023-02-08T00:36:06.255Z,5.90
2023-02-08T00:38:35.493Z,5.83
2023-02-08T00:41:03.429Z,5.53
2023-02-08T00:43:31.357Z,7.10
2023-02-08T00:46:00.803Z,6.40
2023-02-08T00:48:29.003Z,6.60
2023-02-08T00:51:01.852Z,6.07
2023-02-08T00:53:29.727Z,5.50
2023-02-08T00:55:59.180Z,6.83
2023-02-08T00:58:27.011Z,6.30
2023-02-08T01:00:55.281Z,5.60
2023-02-08T01:03:23.910Z,5.20
2023-02-08T01:05:51.779Z,5.97
2023-02-08T01:08:20.422Z,7.00
2023-02-08T01:10:49.110Z,5.83
2023-02-08T01:13:18.472Z,5.97
2023-02-08T01:15:46.358Z,5.80
2023-02-08T01:18:14.156Z,6.00
2023-02-08T01:20:42.184Z,6.40
2023-02-08T01:23:10.116Z,6.67
2023-02-08T01:25:38.014Z,6.97
2023-02-08T01:28:06.031Z,7.90
2023-02-08T01:30:35.174Z,6.97
2023-02-08T01:33:03.077Z,6.60
2023-02-08T01:35:30.977Z,6.30
2023-02-08T01:37:58.761Z,6.10
2023-02-08T01:40:26.565Z,6.40
2023-02-08T01:42:54.334Z,6.20
2023-02-08T01:45:26.410Z,6.90
2023-02-08T01:47:59.841Z,7.47
2023-02-08T01:50:33.471Z,5.80
2023-02-08T01:53:01.780Z,7.33
2023-02-08T01:55:33.276Z,7.80
2023-02-08T01:58:04.516Z,7.03
2023-02-08T02:00:33.898Z,6.20
2023-02-08T02:03:03.800Z,6.70
2023-02-08T02:05:41.686Z,6.60
2023-02-08T02:08:12.541Z,7.10
2023-02-08T02:10:42.477Z,7.10
2023-02-08T02:13:13.209Z,7.00
2023-02-08T02:15:41.408Z,8.73
2023-02-08T02:18:10.925Z,7.13
2023-02-08T02:20:58.326Z,8.03
2023-02-08T02:23:53.292Z,7.27
2023-02-08T02:27:08.158Z,7.20
2023-02-08T02:29:52.330Z,7.33
2023-02-08T02:32:32.502Z,7.30
2023-02-08T02:35:05.918Z,7.53
2023-02-08T02:37:44.924Z,6.60
2023-02-08T02:40:21.209Z,6.97
2023-02-08T02:43:16.784Z,8.07
2023-02-08T02:45:53.442Z,9.80
2023-02-08T02:48:30.993Z,8.57
2023-02-08T02:51:03.838Z,8.57
2023-02-08T02:53:38.608Z,8.10
2023-02-08T02:56:10.988Z,7.50
2023-02-08T02:58:41.032Z,6.22
2023-02-08T03:01:09.233Z,7.83
2023-02-08T03:03:38.437Z,7.53
2023-02-08T03:06:09.294Z,8.07
2023-02-08T03:08:56.332Z,8.20
2023-02-08T03:11:28.039Z,8.23
2023-02-08T03:14:09.730Z,8.33
2023-02-08T03:16:52.798Z,9.60
2023-02-08T03:19:28.628Z,8.45
2023-02-08T03:22:01.814Z,9.15
2023-02-08T03:24:38.579Z,9.37
2023-02-08T03:27:10.546Z,8.00
2023-02-08T03:29:46.705Z,7.70
2023-02-08T03:32:18.509Z,10.73
2023-02-08T03:34:54.370Z,8.73
2023-02-08T03:37:27.387Z,7.90
2023-02-08T03:40:01.621Z,7.90
2023-02-08T03:42:31.927Z,7.65
2023-02-08T03:45:03.518Z,8.60
2023-02-08T03:47:36.074Z,9.45
2023-02-08T03:50:10.427Z,8.70
2023-02-08T03:52:38.799Z,8.73
2023-02-08T03:55:10.103Z,8.90
2023-02-08T03:57:43.714Z,8.73
2023-02-08T04:00:15.620Z,8.65
2023-02-08T04:02:48.695Z,8.80
2023-02-08T04:05:18.109Z,8.87
2023-02-08T04:07:46.015Z,9.20
2023-02-08T04:10:13.862Z,8.23
2023-02-08T04:12:42.546Z,8.87
2023-02-08T04:15:10.991Z,9.90
2023-02-08T04:17:38.904Z,9.57
2023-02-08T04:20:07.481Z,9.45
2023-02-08T04:22:36.630Z,8.30
2023-02-08T04:25:05.884Z,7.90
2023-02-08T04:27:33.877Z,9.25
2023-02-08T04:30:01.738Z,9.55
2023-02-08T04:32:29.522Z,7.53
2023-02-08T04:34:57.426Z,8.60
2023-02-08T04:37:25.461Z,9.10
2023-02-08T04:39:54.599Z,7.53
2023-02-08T04:42:22.608Z,8.88
2023-02-08T04:44:50.481Z,8.93
2023-02-08T04:47:18.274Z,8.30
2023-02-08T04:49:46.055Z,8.90
2023-02-08T04:52:13.887Z,8.98
2023-02-08T04:54:41.667Z,8.77
2023-02-08T04:57:14.074Z,7.87
2023-02-08T04:59:42.288Z,8.63
2023-02-08T05:02:10.040Z,8.30
2023-02-08T05:04:37.914Z,8.40
2023-02-08T05:07:05.817Z,8.60
2023-02-08T05:09:33.693Z,8.93
2023-02-08T05:12:01.541Z,8.87
2023-02-08T05:14:30.683Z,9.50
2023-02-08T05:16:58.546Z,10.20
2023-02-08T05:19:27.264Z,8.65
2023-02-08T05:21:55.139Z,10.00
2023-02-08T05:24:23.339Z,7.57
2023-02-08T05:26:51.156Z,10.17
2023-02-08T05:29:18.957Z,8.40
2023-02-08T05:31:48.169Z,8.18
2023-02-08T05:34:16.064Z,8.90
2023-02-08T05:36:43.875Z,8.77
2023-02-08T05:39:11.741Z,8.45
2023-02-08T05:41:39.492Z,9.20
2023-02-08T05:44:07.330Z,7.32
2023-02-08T05:46:37.848Z,9.10
2023-02-08T05:49:08.067Z,8.37
2023-02-08T05:51:35.893Z,8.65
2023-02-08T05:54:03.879Z,8.80
2023-02-08T05:56:31.773Z,10.57
2023-02-08T05:59:01.486Z,9.85
2023-02-08T06:01:29.340Z,9.67
2023-02-08T06:03:57.125Z,10.30
2023-02-08T06:06:26.393Z,9.55
2023-02-08T06:08:54.191Z,9.80
2023-02-08T06:11:22.388Z,9.95
2023-02-08T06:13:50.146Z,9.45
2023-02-08T06:16:20.058Z,11.90
2023-02-08T06:18:48.195Z,8.93
2023-02-08T06:21:16.123Z,10.77
2023-02-08T06:23:47.333Z,10.68
2023-02-08T06:26:18.369Z,10.00
2023-02-08T06:28:46.206Z,9.70
2023-02-08T06:31:14.219Z,11.10
2023-02-08T06:33:42.106Z,8.70
2023-02-08T06:36:10.372Z,8.40
2023-02-08T06:38:38.185Z,9.73
2023-02-08T06:41:07.398Z,6.75
2023-02-08T06:43:35.260Z,9.38
2023-02-08T06:46:04.688Z,9.30
2023-02-08T06:48:32.593Z,8.27
2023-02-08T06:51:00.372Z,9.18
2023-02-08T06:53:28.222Z,9.75
2023-02-08T06:55:56.556Z,9.18
2023-02-08T06:58:25.687Z,9.52
2023-02-08T07:00:53.538Z,9.40
2023-02-08T07:03:22.652Z,9.77
2023-02-08T07:06:04.053Z,10.97
2023-02-08T07:08:32.851Z,10.18
2023-02-08T07:11:00.678Z,9.85
2023-02-08T07:13:29.872Z,9.20
2023-02-08T07:15:57.670Z,9.32
2023-02-08T07:18:25.548Z,9.73
2023-02-08T07:20:53.337Z,9.55
2023-02-08T07:23:21.107Z,9.10
2023-02-08T07:25:58.596Z,10.88
2023-02-08T07:28:26.809Z,10.43
2023-02-08T07:30:56.449Z,9.90
2023-02-08T07:33:24.868Z,10.88
2023-02-08T07:35:53.166Z,10.60
2023-02-08T07:38:21.090Z,10.60
2023-02-08T07:40:49.022Z,11.93
2023-02-08T07:43:16.858Z,12.80
2023-02-08T07:45:44.636Z,12.30
2023-02-08T07:48:13.795Z,11.43
2023-02-08T07:50:41.819Z,11.70
2023-02-08T07:53:09.711Z,11.15
2023-02-08T07:55:37.516Z,11.65
2023-02-08T07:58:05.264Z,14.15
2023-02-08T08:00:33.067Z,12.32
2023-02-08T08:03:01.448Z,12.25
2023-02-08T08:05:30.658Z,12.30
2023-02-08T08:07:58.439Z,10.43
2023-02-08T08:10:26.246Z,10.50
2023-02-08T08:12:54.177Z,11.10
2023-02-08T08:15:21.974Z,12.93
2023-02-08T08:17:49.857Z,12.20
2023-02-08T08:20:18.109Z,9.43
2023-02-08T08:22:48.147Z,12.35
2023-02-08T08:25:16.386Z,13.10
2023-02-08T08:27:44.265Z,10.55
2023-02-08T08:30:15.820Z,10.32
2023-02-08T08:32:44.043Z,8.20
2023-02-08T08:35:12.165Z,15.45
2023-02-08T08:37:40.310Z,9.70
2023-02-08T08:40:11.027Z,10.50
2023-02-08T08:42:40.178Z,9.88
2023-02-08T08:45:09.646Z,10.60
2023-02-08T08:47:37.467Z,11.65
2023-02-08T08:50:05.579Z,12.40
2023-02-08T08:52:33.361Z,8.07
2023-02-08T08:55:01.125Z,10.13
2023-02-08T08:57:30.489Z,10.40
2023-02-08T08:59:58.295Z,9.60
2023-02-08T09:02:26.171Z,11.20
2023-02-08T09:04:55.115Z,12.80
2023-02-08T09:07:22.997Z,11.67
2023-02-08T09:09:50.853Z,9.80
2023-02-08T09:12:18.699Z,7.23
2023-02-08T09:14:47.864Z,12.30
2023-02-08T09:17:15.641Z,5.70
2023-02-08T09:19:43.466Z,11.10
2023-02-08T09:22:11.342Z,11.27
2023-02-08T09:24:39.961Z,10.17
2023-02-08T09:27:08.036Z,9.03
2023-02-08T09:29:36.070Z,10.13
2023-02-08T09:32:05.698Z,12.23
2023-02-08T09:34:33.552Z,9.67
2023-02-08T09:37:01.345Z,9.23
2023-02-08T09:39:29.196Z,10.70
2023-02-08T09:42:24.118Z,10.50
2023-02-08T09:45:21.397Z,10.83
2023-02-08T09:47:58.170Z,8.60
2023-02-08T09:50:32.591Z,7.30
2023-02-08T09:53:08.698Z,11.50
2023-02-08T09:55:39.377Z,10.30
2023-02-08T09:58:18.575Z,10.50
2023-02-08T10:00:50.586Z,9.70
2023-02-08T10:03:30.533Z,11.00
2023-02-08T10:05:58.452Z,12.90
2023-02-08T10:08:35.207Z,10.67
2023-02-08T10:11:19.872Z,10.17
2023-02-08T10:14:06.904Z,13.33
2023-02-08T10:16:53.744Z,10.77
2023-02-08T10:19:34.180Z,11.83
2023-02-08T10:22:15.910Z,10.97
2023-02-08T10:25:11.048Z,9.53
2023-02-08T10:27:49.666Z,12.20
2023-02-08T10:30:27.574Z,10.83
2023-02-08T10:33:03.284Z,8.43
2023-02-08T10:35:37.408Z,9.40
2023-02-08T10:38:24.996Z,12.07
2023-02-08T10:40:57.456Z,9.43
2023-02-08T10:43:32.001Z,14.10
2023-02-08T10:46:10.170Z,10.53
2023-02-08T10:48:47.746Z,8.10
2023-02-08T10:51:18.386Z,10.13
2023-02-08T10:53:46.694Z,10.13
2023-02-08T10:56:33.066Z,8.60
2023-02-08T10:59:05.790Z,11.40
2023-02-08T11:01:33.993Z,12.87
2023-02-08T11:04:02.947Z,11.60
2023-02-08T11:06:32.163Z,8.43
2023-02-08T11:09:00.090Z,11.93
2023-02-08T11:11:29.703Z,9.90
2023-02-08T11:14:08.918Z,14.40
2023-02-08T11:16:38.481Z,12.23
2023-02-08T11:19:07.996Z,11.30
2023-02-08T11:21:39.973Z,11.70
2023-02-08T11:24:26.119Z,13.33
2023-02-08T11:26:56.230Z,11.60
2023-02-08T11:29:26.415Z,9.60
2023-02-08T11:31:59.962Z,10.50
2023-02-08T11:34:29.647Z,10.87
2023-02-08T11:37:00.467Z,11.73
2023-02-08T11:39:31.470Z,11.37
2023-02-08T11:42:01.854Z,10.77
2023-02-08T11:44:33.595Z,13.33
2023-02-08T11:47:04.613Z,12.67
2023-02-08T11:49:38.724Z,9.60
2023-02-08T11:52:19.672Z,9.80
2023-02-08T11:54:47.717Z,11.43
2023-02-08T11:57:19.626Z,11.30
2023-02-08T11:59:47.940Z,9.70
2023-02-08T12:02:32.367Z,11.70
2023-02-08T12:05:00.552Z,12.10
2023-02-08T12:07:47.089Z,10.90
2023-02-08T12:10:56.621Z,13.00
2023-02-08T12:13:39.225Z,15.27
2023-02-08T12:16:21.154Z,12.63
2023-02-08T12:19:21.444Z,15.20
2023-02-08T12:21:55.357Z,12.67
2023-02-08T12:24:37.148Z,10.63
2023-02-08T12:27:18.905Z,11.80
2023-02-08T12:29:56.702Z,10.27
2023-02-08T12:32:44.874Z,13.10
2023-02-08T12:36:03.257Z,12.43
2023-02-08T12:39:19.626Z,10.63
2023-02-08T12:42:07.245Z,11.30
2023-02-08T12:44:45.513Z,10.63
2023-02-08T12:47:25.584Z,10.90
2023-02-08T12:50:04.300Z,12.57
2023-02-08T12:52:37.974Z,13.13
2023-02-08T12:55:14.331Z,12.80
2023-02-08T12:57:46.039Z,12.67
2023-02-08T13:00:20.766Z,8.27
2023-02-08T13:02:58.153Z,12.37
2023-02-08T13:05:30.995Z,11.90
2023-02-08T13:08:04.150Z,9.33
2023-02-08T13:10:37.362Z,13.37
2023-02-08T13:13:15.646Z,11.63
2023-02-08T13:15:47.820Z,10.40
2023-02-08T13:18:21.322Z,10.37
2023-02-08T13:20:52.091Z,11.37
2023-02-08T13:23:25.454Z,10.77
2023-02-08T13:25:56.599Z,10.60
2023-02-08T13:28:27.282Z,10.30
2023-02-08T13:30:59.246Z,11.07
2023-02-08T13:33:34.055Z,10.47
2023-02-08T13:36:02.181Z,12.37
2023-02-08T13:38:32.854Z,11.20
2023-02-08T13:41:15.080Z,11.07
2023-02-08T13:43:49.868Z,11.53
2023-02-08T13:46:19.834Z,11.83
2023-02-08T13:48:50.411Z,11.83
2023-02-08T13:51:57.165Z,8.87
2023-02-08T13:54:25.369Z,10.53
2023-02-08T13:56:54.103Z,5.90
2023-02-08T13:59:33.696Z,10.37
2023-02-08T14:02:23.164Z,9.40
2023-02-08T14:04:52.764Z,9.60
2023-02-08T14:07:32.884Z,8.97
2023-02-08T14:10:08.578Z,8.37
2023-02-08T14:12:42.999Z,10.40
2023-02-08T14:15:43.361Z,9.10
2023-02-08T14:18:26.972Z,9.60
2023-02-08T14:21:02.875Z,10.87
2023-02-08T14:23:32.357Z,11.37
2023-02-08T14:26:07.083Z,9.97
2023-02-08T14:28:38.393Z,9.30
2023-02-08T14:31:11.557Z,9.50
2023-02-08T14:33:42.547Z,9.93
2023-02-08T14:36:33.779Z,10.90
2023-02-08T14:39:23.819Z,7.53
2023-02-08T14:41:57.036Z,8.70
2023-02-08T14:45:05.848Z,8.00
2023-02-08T14:48:07.777Z,9.03
2023-02-08T14:50:40.487Z,8.80
2023-02-08T14:53:31.945Z,7.70
2023-02-08T14:56:06.389Z,8.50
2023-02-08T14:58:37.500Z,9.03
2023-02-08T15:01:13.033Z,8.27
2023-02-08T15:03:43.338Z,8.13
2023-02-08T15:06:58.408Z,8.97
2023-02-08T15:09:30.395Z,7.67
2023-02-08T15:12:02.688Z,9.10
2023-02-08T15:14:31.844Z,7.77
2023-02-08T15:16:59.783Z,8.20
2023-02-08T15:19:31.079Z,8.03
2023-02-08T15:22:29.153Z,7.67
2023-02-08T15:25:01.005Z,7.83
2023-02-08T15:27:30.697Z,7.17
2023-02-08T15:29:58.607Z,7.40
2023-02-08T15:32:28.039Z,8.33
2023-02-08T15:34:59.491Z,8.90
2023-02-08T15:37:30.984Z,6.47
2023-02-08T15:40:00.434Z,7.20
2023-02-08T15:42:31.113Z,7.37
2023-02-08T15:45:00.560Z,9.30
2023-02-08T15:47:32.513Z,9.40
2023-02-08T15:50:03.159Z,8.80
2023-02-08T15:52:35.882Z,6.83
2023-02-08T15:55:04.111Z,7.17
2023-02-08T15:57:36.865Z,7.10
2023-02-08T16:00:06.973Z,7.30
2023-02-08T16:02:36.138Z,7.23
2023-02-08T16:05:20.175Z,5.33
2023-02-08T16:07:48.711Z,6.67
2023-02-08T16:10:26.302Z,7.13
2023-02-08T16:12:57.173Z,6.93
2023-02-08T16:15:40.386Z,7.60
2023-02-08T16:18:35.910Z,7.70
2023-02-08T16:21:07.379Z,8.07
2023-02-08T16:23:39.599Z,7.37
2023-02-08T16:26:14.107Z,7.40
2023-02-08T16:28:41.943Z,7.47
2023-02-08T16:31:09.901Z,7.80
2023-02-08T16:33:39.461Z,9.33
2023-02-08T16:36:08.713Z,6.47
2023-02-08T16:38:36.651Z,8.63
2023-02-08T16:41:13.029Z,8.47
2023-02-08T16:43:43.711Z,8.03
2023-02-08T16:46:25.075Z,7.17
2023-02-08T16:48:54.844Z,7.50
2023-02-08T16:51:26.899Z,6.67
2023-02-08T16:53:57.489Z,6.93
2023-02-08T16:56:25.406Z,7.27
2023-02-08T16:58:53.272Z,6.27
2023-02-08T17:01:23.737Z,7.63
2023-02-08T17:03:52.811Z,5.67
2023-02-08T17:06:30.417Z,7.20
2023-02-08T17:08:58.591Z,6.33
2023-02-08T17:11:26.644Z,7.33
2023-02-08T17:13:54.576Z,6.33
2023-02-08T17:16:25.031Z,8.90
2023-02-08T17:18:53.778Z,7.27
2023-02-08T17:21:21.942Z,6.40
2023-02-08T17:23:51.501Z,5.13
2023-02-08T17:26:23.990Z,6.93
2023-02-08T17:28:51.851Z,6.90
2023-02-08T17:31:21.073Z,7.73
2023-02-08T17:33:50.137Z,6.10
2023-02-08T17:36:19.648Z,8.68
2023-02-08T17:38:48.002Z,7.07
2023-02-08T17:41:19.487Z,6.73
2023-02-08T17:43:50.336Z,6.83
2023-02-08T17:46:20.788Z,6.90
2023-02-08T17:48:48.936Z,8.07
2023-02-08T17:51:18.446Z,6.83
2023-02-08T17:53:46.211Z,6.10
2023-02-08T17:56:16.029Z,6.73
2023-02-08T17:58:46.164Z,6.30
2023-02-08T18:01:17.208Z,6.97
2023-02-08T18:03:45.455Z,7.40
2023-02-08T18:06:14.150Z,6.73
2023-02-08T18:08:42.135Z,5.93
2023-02-08T18:11:12.872Z,7.37
2023-02-08T18:13:41.002Z,7.77
2023-02-08T18:16:11.604Z,6.93
2023-02-08T18:18:39.740Z,6.43
2023-02-08T18:21:14.168Z,6.33
2023-02-08T18:23:42.738Z,7.77
2023-02-08T18:26:13.262Z,6.47
2023-02-08T18:28:41.224Z,6.17
2023-02-08T18:31:14.418Z,5.47
2023-02-08T18:33:43.347Z,6.37
2023-02-08T18:36:12.364Z,6.17
2023-02-08T18:38:40.584Z,5.57
2023-02-08T18:41:09.838Z,7.00
2023-02-08T18:43:38.019Z,6.40
2023-02-08T18:46:09.779Z,5.63
2023-02-08T18:48:39.744Z,6.57
2023-02-08T18:51:09.182Z,5.27
2023-02-08T18:53:39.506Z,5.60
2023-02-08T18:56:09.849Z,6.00
2023-02-08T18:58:37.943Z,5.50
2023-02-08T19:01:07.793Z,6.60
2023-02-08T19:03:36.605Z,7.00
2023-02-08T19:06:08.240Z,7.20
2023-02-08T19:08:37.492Z,5.40
2023-02-08T19:11:05.620Z,5.70
2023-02-08T19:13:35.339Z,5.73
2023-02-08T19:16:03.112Z,5.70
2023-02-08T19:18:30.915Z,5.43
2023-02-08T19:21:04.842Z,6.20
2023-02-08T19:23:34.403Z,6.47
2023-02-08T19:26:03.512Z,5.30
2023-02-08T19:28:33.523Z,4.80
2023-02-08T19:31:06.382Z,6.10
2023-02-08T19:33:34.511Z,5.67
2023-02-08T19:36:08.163Z,5.70
2023-02-08T19:38:37.900Z,6.00
2023-02-08T19:41:06.594Z,5.00
2023-02-08T19:43:34.519Z,5.13
2023-02-08T19:46:02.623Z,6.13
2023-02-08T19:48:30.471Z,5.63
2023-02-08T19:50:59.606Z,5.07
2023-02-08T19:53:28.381Z,6.03
2023-02-08T19:55:58.528Z,5.73
2023-02-08T19:58:26.624Z,5.60
2023-02-08T20:00:55.318Z,5.07
2023-02-08T20:03:24.625Z,5.00
2023-02-08T20:05:54.856Z,6.43
2023-02-08T20:08:26.374Z,6.17
2023-02-08T20:10:55.769Z,4.83
2023-02-08T20:13:25.090Z,5.23
2023-02-08T20:15:59.703Z,6.23
2023-02-08T20:18:28.443Z,5.80
2023-02-08T20:21:01.391Z,6.10
2023-02-08T20:23:29.348Z,6.13
2023-02-08T20:26:12.612Z,5.90
2023-02-08T20:28:44.287Z,5.90
2023-02-08T20:31:14.727Z,4.07
2023-02-08T20:33:43.140Z,7.10
2023-02-08T20:36:12.899Z,6.00
2023-02-08T20:38:41.005Z,6.03
2023-02-08T20:41:11.536Z,5.60
2023-02-08T20:43:42.377Z,5.40
2023-02-08T20:46:13.593Z,5.63
2023-02-08T20:48:41.424Z,6.10
2023-02-08T20:51:11.455Z,5.63
2023-02-08T20:53:40.885Z,5.17
2023-02-08T20:56:12.607Z,5.37
2023-02-08T20:58:41.872Z,5.67
2023-02-08T21:01:10.542Z,5.37
2023-02-08T21:03:38.393Z,5.97
2023-02-08T21:06:12.840Z,5.20
2023-02-08T21:08:41.010Z,4.67
2023-02-08T21:11:09.431Z,5.07
2023-02-08T21:13:37.864Z,5.13
2023-02-08T21:16:08.444Z,4.97
2023-02-08T21:18:37.125Z,4.10
2023-02-08T21:21:05.650Z,4.23
2023-02-08T21:23:34.771Z,4.33
2023-02-08T21:26:04.181Z,5.00
2023-02-08T21:28:32.338Z,5.10
2023-02-08T21:31:02.018Z,4.37
2023-02-08T21:33:31.354Z,5.43
2023-02-08T21:36:02.859Z,3.97
2023-02-08T21:38:30.752Z,4.87
2023-02-08T21:40:58.511Z,4.50
2023-02-08T21:43:26.375Z,5.00
2023-02-08T21:45:54.150Z,4.50
2023-02-08T21:48:22.137Z,4.47
2023-02-08T21:51:08.923Z,4.33
2023-02-08T21:53:54.233Z,3.20
2023-02-08T21:56:22.031Z,4.33
2023-02-08T21:58:49.839Z,3.93
2023-02-08T22:01:17.761Z,4.10
2023-02-08T22:03:45.627Z,4.77
2023-02-08T22:06:14.764Z,4.03
2023-02-08T22:08:42.596Z,5.20
2023-02-08T22:11:10.456Z,3.50
2023-02-08T22:13:38.240Z,4.50
2023-02-08T22:16:08.878Z,4.13
2023-02-08T22:18:37.116Z,4.27
2023-02-08T22:21:05.095Z,4.67
2023-02-08T22:23:34.229Z,3.50
2023-02-08T22:26:02.091Z,3.67
2023-02-08T22:28:30.134Z,4.87
2023-02-08T22:30:58.375Z,3.80
2023-02-08T22:33:26.280Z,4.87
2023-02-08T22:35:55.158Z,4.53
2023-02-08T22:38:23.105Z,4.50
2023-02-08T22:40:53.607Z,4.60
2023-02-08T22:43:21.450Z,4.83
2023-02-08T22:45:58.170Z,5.17
2023-02-08T22:48:26.419Z,4.27
2023-02-08T22:50:54.476Z,4.27
2023-02-08T22:53:22.338Z,4.30
2023-02-08T22:55:52.078Z,4.57
2023-02-08T23:00:55.382Z,5.70
2023-02-08T23:03:23.539Z,3.90
2023-02-08T23:05:52.509Z,5.27
2023-02-08T23:08:22.133Z,5.40
2023-02-08T23:10:50.157Z,5.97
2023-02-08T23:13:19.562Z,4.90
2023-02-08T23:15:47.574Z,5.80
2023-02-08T23:18:15.536Z,4.70
2023-02-08T23:20:43.708Z,5.27
2023-02-08T23:23:11.702Z,4.90
2023-02-08T23:25:40.526Z,4.33
2023-02-08T23:28:09.563Z,4.33
2023-02-08T23:30:41.181Z,4.63
2023-02-08T23:33:09.516Z,4.63
2023-02-08T23:35:41.570Z,5.23
2023-02-08T23:38:09.569Z,5.10
2023-02-08T23:40:37.386Z,4.00
2023-02-08T23:43:05.244Z,5.10
2023-02-08T23:45:33.027Z,4.60
2023-02-08T23:48:02.787Z,5.13
2023-02-08T23:50:30.575Z,4.47
2023-02-08T23:52:58.366Z,4.97
2023-02-08T23:55:26.468Z,5.60
2023-02-08T23:57:54.295Z,5.40
